createdAt,value
2023-03-06T00:02:41.064Z,51.91
2023-03-06T00:05:43.218Z,51.84
2023-03-06T00:08:45.929Z,51.87
2023-03-06T00:11:47.982Z,51.87
2023-03-06T00:14:51.287Z,51.82
2023-03-06T00:17:54.362Z,51.78
2023-03-06T00:20:58.231Z,51.86
2023-03-06T00:24:02.197Z,51.88
2023-03-06T00:27:05.154Z,51.95
2023-03-06T00:30:11.030Z,52.09
2023-03-06T00:33:13.467Z,52.14
2023-03-06T00:36:15.771Z,52.16
2023-03-06T00:39:18.690Z,52.26
2023-03-06T00:42:21.474Z,52.34
2023-03-06T00:45:23.919Z,52.31
2023-03-06T00:48:26.294Z,52.30
2023-03-06T00:51:28.778Z,52.26
2023-03-06T00:54:30.754Z,52.29
2023-03-06T00:57:33.376Z,52.27
2023-03-06T01:00:36.025Z,52.22
2023-03-06T01:03:38.417Z,52.28
2023-03-06T01:06:40.494Z,52.42
2023-03-06T01:09:44.824Z,52.52
2023-03-06T01:12:47.300Z,52.58
2023-03-06T01:15:50.035Z,52.56
2023-03-06T01:18:52.318Z,52.57
2023-03-06T01:21:54.896Z,52.65
2023-03-06T01:24:57.192Z,52.59
2023-03-06T01:28:01.483Z,52.59
2023-03-06T01:31:06.211Z,52.54
2023-03-06T01:34:08.593Z,52.54
2023-03-06T01:37:10.653Z,52.48
2023-03-06T01:40:13.820Z,52.46
2023-03-06T01:43:26.427Z,52.47
2023-03-06T01:46:42.538Z,52.48
2023-03-06T01:49:44.569Z,52.52
2023-03-06T01:52:52.597Z,52.55
2023-03-06T01:55:55.924Z,52.51
2023-03-06T01:59:00.317Z,52.48
2023-03-06T02:02:05.342Z,52.39
2023-03-06T02:05:08.441Z,52.35
2023-03-06T02:08:15.493Z,52.30
2023-03-06T02:11:22.058Z,52.38
2023-03-06T02:14:24.812Z,52.38
2023-03-06T02:17:27.882Z,52.41
2023-03-06T02:20:43.911Z,52.47
2023-03-06T02:24:07.913Z,52.47
2023-03-06T02:27:15.153Z,52.41
2023-03-06T02:30:19.004Z,52.47
2023-03-06T02:33:24.999Z,52.42
2023-03-06T02:36:28.223Z,52.36
2023-03-06T02:39:34.201Z,52.43
2023-03-06T02:42:38.276Z,52.48
2023-03-06T02:45:45.648Z,52.56
2023-03-06T02:48:48.429Z,52.56
2023-03-06T02:51:50.486Z,52.60
2023-03-06T02:54:53.549Z,52.58
2023-03-06T02:57:55.981Z,52.50
2023-03-06T03:00:59.737Z,52.51
2023-03-06T03:04:02.277Z,52.51
2023-03-06T03:07:05.397Z,52.55
2023-03-06T03:10:10.736Z,52.55
2023-03-06T03:13:13.665Z,52.52
2023-03-06T03:16:17.646Z,52.62
2023-03-06T03:19:20.189Z,52.69
2023-03-06T03:22:23.017Z,52.80
2023-03-06T03:25:26.559Z,52.86
2023-03-06T03:28:31.330Z,52.65
2023-03-06T03:31:33.868Z,52.62
2023-03-06T03:34:37.765Z,52.60
2023-03-06T03:37:41.736Z,52.63
2023-03-06T03:40:44.615Z,52.59
2023-03-06T03:43:47.685Z,52.58
2023-03-06T03:46:50.081Z,52.58
2023-03-06T03:49:56.537Z,52.82
2023-03-06T03:53:00.089Z,63.59
2023-03-06T03:56:04.227Z,61.23
2023-03-06T03:59:09.850Z,53.58
2023-03-06T04:02:22.186Z,58.34
2023-03-06T04:05:44.816Z,63.54
2023-03-06T04:08:50.097Z,65.79
2023-03-06T04:11:52.567Z,69.27
2023-03-06T04:14:58.343Z,74.28
2023-03-06T04:18:01.178Z,76.92
2023-03-06T04:21:06.123Z,78.28
2023-03-06T04:24:09.426Z,79.47
2023-03-06T04:27:13.029Z,79.94
2023-03-06T04:30:15.260Z,80.19
2023-03-06T04:33:18.218Z,80.39
2023-03-06T04:36:39.085Z,80.49
2023-03-06T04:39:46.122Z,80.72
2023-03-06T04:42:49.564Z,81.40
2023-03-06T04:45:52.278Z,81.75
2023-03-06T04:48:54.758Z,81.66
2023-03-06T04:51:57.424Z,81.61
2023-03-06T04:55:00.928Z,81.47
2023-03-06T04:58:04.208Z,81.78
2023-03-06T05:01:06.649Z,82.05
2023-03-06T05:04:09.327Z,82.33
2023-03-06T05:07:11.318Z,82.69
2023-03-06T05:10:17.377Z,82.57
2023-03-06T05:13:21.264Z,82.66
2023-03-06T05:16:23.675Z,82.57
2023-03-06T05:19:25.860Z,82.95
2023-03-06T05:22:28.229Z,82.63
2023-03-06T05:25:30.436Z,82.70
2023-03-06T05:28:32.907Z,83.16
2023-03-06T05:31:35.426Z,83.32
2023-03-06T05:34:40.212Z,83.38
2023-03-06T05:37:42.446Z,83.41
2023-03-06T05:40:49.109Z,83.23
2023-03-06T05:43:54.014Z,82.89
2023-03-06T05:46:56.508Z,83.01
2023-03-06T05:49:58.831Z,83.00
2023-03-06T05:53:01.632Z,82.78
2023-03-06T05:56:06.368Z,82.26
2023-03-06T05:59:08.923Z,81.52
2023-03-06T06:02:11.053Z,81.70
2023-03-06T06:05:14.281Z,81.76
2023-03-06T06:08:17.389Z,80.92
2023-03-06T06:11:21.035Z,79.74
2023-03-06T06:14:23.121Z,79.16
2023-03-06T06:17:27.922Z,76.76
2023-03-06T06:20:30.180Z,76.49
2023-03-06T06:23:34.640Z,75.61
2023-03-06T06:26:36.755Z,75.98
2023-03-06T06:29:39.113Z,72.83
2023-03-06T06:32:41.443Z,73.26
2023-03-06T06:35:43.903Z,73.33
2023-03-06T06:38:46.040Z,74.68
2023-03-06T06:42:05.469Z,73.51
2023-03-06T06:45:13.038Z,72.30
2023-03-06T06:48:16.783Z,78.95
2023-03-06T06:51:22.063Z,74.21
2023-03-06T06:54:25.025Z,67.65
2023-03-06T06:57:27.955Z,63.11
2023-03-06T07:00:30.735Z,61.05
2023-03-06T07:03:33.576Z,59.55
2023-03-06T07:06:36.464Z,58.44
2023-03-06T07:09:40.774Z,57.57
2023-03-06T07:12:43.252Z,56.57
2023-03-06T07:15:45.344Z,56.02
2023-03-06T07:18:48.293Z,55.59
2023-03-06T07:21:51.009Z,55.21
2023-03-06T07:24:53.486Z,54.87
2023-03-06T07:27:59.384Z,54.85
2023-03-06T07:31:02.178Z,54.72
2023-03-06T07:34:05.161Z,54.60
2023-03-06T07:37:07.986Z,54.44
2023-03-06T07:40:12.631Z,54.27
2023-03-06T07:43:19.385Z,55.25
2023-03-06T07:46:31.386Z,54.84
2023-03-06T07:49:34.300Z,54.65
2023-03-06T07:52:36.813Z,57.98
2023-03-06T07:55:41.690Z,56.93
2023-03-06T07:58:47.120Z,56.30
2023-03-06T08:01:49.567Z,54.77
2023-03-06T08:04:53.452Z,56.17
2023-03-06T08:07:57.794Z,55.78
2023-03-06T08:10:59.792Z,55.20
2023-03-06T08:14:02.675Z,54.71
2023-03-06T08:17:05.499Z,54.31
2023-03-06T08:20:10.499Z,54.30
2023-03-06T08:23:12.574Z,54.29
2023-03-06T08:26:18.266Z,54.07
2023-03-06T08:29:24.050Z,54.16
2023-03-06T08:32:29.306Z,50.32
2023-03-06T08:35:31.749Z,57.14
2023-03-06T08:38:34.531Z,56.30
2023-03-06T08:41:37.570Z,55.97
2023-03-06T08:44:40.962Z,56.35
2023-03-06T08:47:43.424Z,48.91
2023-03-06T08:50:46.362Z,53.04
2023-03-06T08:53:49.076Z,61.06
2023-03-06T08:56:52.039Z,59.39
2023-03-06T08:59:54.180Z,58.09
2023-03-06T09:02:56.676Z,56.73
2023-03-06T09:05:59.833Z,55.63
2023-03-06T09:09:03.289Z,54.98
2023-03-06T09:12:06.168Z,54.57
2023-03-06T09:15:10.134Z,53.03
2023-03-06T09:18:12.961Z,56.08
2023-03-06T09:21:16.063Z,55.50
2023-03-06T09:24:18.684Z,42.96
2023-03-06T09:27:23.403Z,52.26
2023-03-06T09:30:26.006Z,61.77
2023-03-06T09:33:28.861Z,59.62
2023-03-06T09:36:31.363Z,51.33
2023-03-06T09:39:33.782Z,48.20
2023-03-06T09:42:36.232Z,61.11
2023-03-06T09:45:42.625Z,57.62
2023-03-06T09:48:50.806Z,56.04
2023-03-06T09:52:14.240Z,54.62
2023-03-06T09:55:27.254Z,54.21
2023-03-06T09:58:34.301Z,53.90
2023-03-06T10:01:42.970Z,53.69
2023-03-06T10:04:50.414Z,53.48
2023-03-06T10:08:12.544Z,53.46
2023-03-06T10:11:19.890Z,53.54
2023-03-06T10:14:31.825Z,53.49
2023-03-06T10:17:41.174Z,53.84
2023-03-06T10:21:18.795Z,53.81
2023-03-06T10:24:54.310Z,53.66
2023-03-06T10:28:15.208Z,53.34
2023-03-06T10:31:26.732Z,53.22
2023-03-06T10:34:33.214Z,52.91
2023-03-06T10:37:35.744Z,52.88
2023-03-06T10:40:47.734Z,52.15
2023-03-06T10:44:05.841Z,52.21
2023-03-06T10:47:28.459Z,52.10
2023-03-06T10:50:31.756Z,52.00
2023-03-06T10:53:34.686Z,52.20
2023-03-06T10:56:40.301Z,52.06
2023-03-06T11:00:00.640Z,51.91
2023-03-06T11:03:18.693Z,51.76
2023-03-06T11:06:35.826Z,51.53
2023-03-06T11:09:39.177Z,51.34
2023-03-06T11:12:43.697Z,50.91
2023-03-06T11:15:57.883Z,50.47
2023-03-06T11:19:17.741Z,50.62
2023-03-06T11:22:20.613Z,50.65
2023-03-06T11:25:28.343Z,50.24
2023-03-06T11:28:35.047Z,50.24
2023-03-06T11:31:42.828Z,50.20
2023-03-06T11:34:53.879Z,50.17
2023-03-06T11:38:12.825Z,49.94
2023-03-06T11:41:32.797Z,49.59
2023-03-06T11:45:19.507Z,49.59
2023-03-06T11:48:28.872Z,49.52
2023-03-06T11:51:38.338Z,49.43
2023-03-06T11:54:41.139Z,50.19
2023-03-06T11:58:02.683Z,50.41
2023-03-06T12:01:31.638Z,50.21
2023-03-06T12:04:42.667Z,50.11
2023-03-06T12:07:48.729Z,49.78
2023-03-06T12:10:58.210Z,49.36
2023-03-06T12:14:29.195Z,49.24
2023-03-06T12:17:53.144Z,48.96
2023-03-06T12:21:05.308Z,48.67
2023-03-06T12:24:35.689Z,48.95
2023-03-06T12:27:52.173Z,48.73
2023-03-06T12:30:57.695Z,48.71
2023-03-06T12:34:00.668Z,48.85
2023-03-06T12:37:09.402Z,48.94
2023-03-06T12:40:49.329Z,49.22
2023-03-06T12:44:00.686Z,49.12
2023-03-06T12:47:11.844Z,49.27
2023-03-06T12:50:33.166Z,49.51
2023-03-06T12:53:36.660Z,49.18
2023-03-06T12:56:39.982Z,48.78
2023-03-06T12:59:48.628Z,48.69
2023-03-06T13:03:21.906Z,48.55
2023-03-06T13:06:59.441Z,48.31
2023-03-06T13:10:11.315Z,48.02
2023-03-06T13:13:30.267Z,47.89
2023-03-06T13:16:34.419Z,47.79
2023-03-06T13:19:37.271Z,47.57
2023-03-06T13:22:40.511Z,47.43
2023-03-06T13:25:49.749Z,47.52
2023-03-06T13:28:54.498Z,47.36
2023-03-06T13:32:01.113Z,47.17
2023-03-06T13:35:33.042Z,47.06
2023-03-06T13:38:37.286Z,46.95
2023-03-06T13:41:55.945Z,46.96
2023-03-06T13:45:06.845Z,46.82
2023-03-06T13:48:44.273Z,46.59
2023-03-06T13:51:54.077Z,46.49
2023-03-06T13:55:53.011Z,46.45
2023-03-06T13:59:20.889Z,46.51
2023-03-06T14:03:04.076Z,46.52
2023-03-06T14:06:35.262Z,46.63
2023-03-06T14:09:41.242Z,47.04
2023-03-06T14:12:59.971Z,47.26
2023-03-06T14:16:02.708Z,46.72
2023-03-06T14:19:06.839Z,46.35
2023-03-06T14:22:17.267Z,46.01
2023-03-06T14:25:29.419Z,45.87
2023-03-06T14:28:33.503Z,46.16
2023-03-06T14:31:43.047Z,46.13
2023-03-06T14:34:46.776Z,46.14
2023-03-06T14:37:53.274Z,46.44
2023-03-06T14:40:55.734Z,46.53
2023-03-06T14:44:19.422Z,46.50
2023-03-06T14:47:33.233Z,46.52
2023-03-06T14:50:36.375Z,46.44
2023-03-06T14:53:38.474Z,46.65
2023-03-06T14:56:46.048Z,46.63
2023-03-06T14:59:58.108Z,46.61
2023-03-06T15:03:00.918Z,46.62
2023-03-06T15:06:05.736Z,46.78
2023-03-06T15:09:25.038Z,47.06
2023-03-06T15:12:30.475Z,46.99
2023-03-06T15:15:33.718Z,47.09
2023-03-06T15:18:42.604Z,47.06
2023-03-06T15:21:48.767Z,47.04
2023-03-06T15:24:50.918Z,47.04
2023-03-06T15:28:19.957Z,46.98
2023-03-06T15:31:25.218Z,46.97
2023-03-06T15:34:28.168Z,46.87
2023-03-06T15:37:31.011Z,46.95
2023-03-06T15:40:33.679Z,46.83
2023-03-06T15:43:40.285Z,46.89
2023-03-06T15:46:42.685Z,46.79
2023-03-06T15:49:45.621Z,46.66
2023-03-06T15:52:49.318Z,46.68
2023-03-06T15:55:52.625Z,46.68
2023-03-06T15:58:57.461Z,46.73
2023-03-06T16:02:04.203Z,46.86
2023-03-06T16:05:16.081Z,46.89
2023-03-06T16:08:18.103Z,47.03
2023-03-06T16:11:35.350Z,47.35
2023-03-06T16:14:45.776Z,47.51
2023-03-06T16:17:49.574Z,47.54
2023-03-06T16:20:52.186Z,47.59
2023-03-06T16:23:54.909Z,47.86
2023-03-06T16:27:01.386Z,47.78
2023-03-06T16:30:05.019Z,47.92
2023-03-06T16:33:07.522Z,47.92
2023-03-06T16:36:18.031Z,47.77
2023-03-06T16:39:22.989Z,47.74
2023-03-06T16:42:25.493Z,46.94
2023-03-06T16:45:27.687Z,48.00
2023-03-06T16:48:30.217Z,48.89
2023-03-06T16:51:33.711Z,48.20
2023-03-06T16:54:36.214Z,48.03
2023-03-06T16:57:39.089Z,48.06
2023-03-06T17:00:42.074Z,48.45
2023-03-06T17:03:46.014Z,47.38
2023-03-06T17:06:49.184Z,49.40
2023-03-06T17:09:51.259Z,49.10
2023-03-06T17:13:06.202Z,49.04
2023-03-06T17:16:12.205Z,48.95
2023-03-06T17:19:18.313Z,49.01
2023-03-06T17:22:20.628Z,49.01
2023-03-06T17:25:23.781Z,48.12
2023-03-06T17:28:26.749Z,47.54
2023-03-06T17:31:34.957Z,47.62
2023-03-06T17:34:37.218Z,47.65
2023-03-06T17:37:40.358Z,47.62
2023-03-06T17:40:42.617Z,47.49
2023-03-06T17:43:44.917Z,47.24
2023-03-06T17:46:47.924Z,47.02
2023-03-06T17:49:52.509Z,46.99
2023-03-06T17:53:29.249Z,47.19
2023-03-06T17:56:40.358Z,46.96
2023-03-06T17:59:50.632Z,46.85
2023-03-06T18:03:38.827Z,47.24
2023-03-06T18:06:41.238Z,47.34
2023-03-06T18:09:45.256Z,47.52
2023-03-06T18:12:47.931Z,47.58
2023-03-06T18:15:50.617Z,47.23
2023-03-06T18:18:55.044Z,47.29
2023-03-06T18:21:58.214Z,47.47
2023-03-06T18:25:01.545Z,47.31
2023-03-06T18:28:06.151Z,47.37
2023-03-06T18:31:25.003Z,47.41
2023-03-06T18:34:27.488Z,47.67
2023-03-06T18:37:29.514Z,47.71
2023-03-06T18:40:32.419Z,47.97
2023-03-06T18:43:38.494Z,48.07
2023-03-06T18:46:42.488Z,48.01
2023-03-06T18:49:46.256Z,48.07
2023-03-06T18:52:48.875Z,48.28
2023-03-06T18:55:54.539Z,48.36
2023-03-06T18:59:00.661Z,48.50
2023-03-06T19:02:03.955Z,48.55
2023-03-06T19:05:07.237Z,48.82
2023-03-06T19:08:11.271Z,48.86
2023-03-06T19:11:15.121Z,48.72
2023-03-06T19:14:18.253Z,49.25
2023-03-06T19:17:20.762Z,49.48
2023-03-06T19:20:26.550Z,49.40
2023-03-06T19:23:29.941Z,49.05
2023-03-06T19:26:32.645Z,49.69
2023-03-06T19:29:36.237Z,49.56
2023-03-06T19:32:38.539Z,49.72
2023-03-06T19:35:42.404Z,49.61
2023-03-06T19:38:45.414Z,49.63
2023-03-06T19:41:48.126Z,49.63
2023-03-06T19:44:51.735Z,49.73
2023-03-06T19:47:56.066Z,49.87
2023-03-06T19:51:03.782Z,49.91
2023-03-06T19:54:06.412Z,50.16
2023-03-06T19:57:08.332Z,50.44
2023-03-06T20:00:11.926Z,50.24
2023-03-06T20:03:18.234Z,50.16
2023-03-06T20:06:22.460Z,50.23
2023-03-06T20:09:24.565Z,50.39
2023-03-06T20:12:27.657Z,50.73
2023-03-06T20:15:29.939Z,50.91
2023-03-06T20:18:33.075Z,51.94
2023-03-06T20:21:37.860Z,51.88
2023-03-06T20:24:41.830Z,51.81
2023-03-06T20:27:44.465Z,51.41
2023-03-06T20:30:49.611Z,51.36
2023-03-06T20:33:54.257Z,51.14
2023-03-06T20:36:58.054Z,51.21
2023-03-06T20:40:00.637Z,50.76
2023-03-06T20:43:03.635Z,50.55
2023-03-06T20:46:07.065Z,50.44
2023-03-06T20:49:12.958Z,51.73
2023-03-06T20:52:15.336Z,55.94
2023-03-06T20:55:18.240Z,52.42
2023-03-06T20:58:22.168Z,50.96
2023-03-06T21:01:25.892Z,50.69
2023-03-06T21:04:30.421Z,50.56
2023-03-06T21:07:33.346Z,50.51
2023-03-06T21:10:37.656Z,50.53
2023-03-06T21:13:40.449Z,50.70
2023-03-06T21:16:43.416Z,50.81
2023-03-06T21:19:46.541Z,50.58
2023-03-06T21:22:49.927Z,50.65
2023-03-06T21:25:53.606Z,51.13
2023-03-06T21:29:00.122Z,50.97
2023-03-06T21:32:04.172Z,50.99
2023-03-06T21:35:07.170Z,50.81
2023-03-06T21:38:11.418Z,50.68
2023-03-06T21:41:19.752Z,50.57
2023-03-06T21:44:22.834Z,50.78
2023-03-06T21:47:26.168Z,50.56
2023-03-06T21:50:28.941Z,50.45
2023-03-06T21:53:32.305Z,50.40
2023-03-06T21:56:34.962Z,50.38
2023-03-06T21:59:40.943Z,50.09
2023-03-06T22:02:44.734Z,50.07
2023-03-06T22:05:47.641Z,49.94
2023-03-06T22:08:50.789Z,49.86
2023-03-06T22:11:54.071Z,49.78
2023-03-06T22:14:57.000Z,49.83
2023-03-06T22:17:59.041Z,49.75
2023-03-06T22:21:10.183Z,49.66
2023-03-06T22:24:13.599Z,49.53
2023-03-06T22:27:16.417Z,49.22
2023-03-06T22:30:19.052Z,49.05
2023-03-06T22:33:21.721Z,50.10
2023-03-06T22:36:25.379Z,64.31
2023-03-06T22:39:27.758Z,62.47
2023-03-06T22:42:29.896Z,59.36
2023-03-06T22:45:34.978Z,55.63
2023-03-06T22:48:40.548Z,52.47
2023-03-06T22:51:43.644Z,50.94
2023-03-06T22:54:46.519Z,50.74
2023-03-06T23:02:35.790Z,50.47
2023-03-06T23:05:42.277Z,50.52
2023-03-06T23:08:48.994Z,50.58
2023-03-06T23:11:51.492Z,50.59
2023-03-06T23:15:12.902Z,50.63
2023-03-06T23:18:37.935Z,51.73
2023-03-06T23:21:59.160Z,51.06
2023-03-06T23:25:19.963Z,50.92
2023-03-06T23:28:22.844Z,50.71
2023-03-06T23:31:30.547Z,50.59
2023-03-06T23:34:33.092Z,50.52
2023-03-06T23:37:35.381Z,50.41
2023-03-06T23:40:38.696Z,50.35
2023-03-06T23:43:42.617Z,50.35
2023-03-06T23:46:44.924Z,50.40
2023-03-06T23:49:47.418Z,50.54
2023-03-06T23:52:54.755Z,50.60
2023-03-06T23:55:57.136Z,50.54
2023-03-06T23:58:59.407Z,50.54
